Time;durP1;ratioP1;P1;durP2;ratioP2;P2;SDS_P1;SDS_P2;PMS_P1;PMS_P2;Temp;Humidity;BMP_temperature;BMP_pressure;BME280_temperature;BME280_humidity;BME280_pressure;Samples;Min_cycle;Max_cycle;Signal;HPM_P1;HPM_P2
2023/08/25 00:00:50;;;;;;;0.10;0.10;;;;;;;-145.06;100.00;39334.06;10389276;28;20257;-67
2023/08/25 00:05:53;;;;;;;0.00;0.00;;;;;;;-145.06;100.00;39309.84;10382740;28;20557;-67
2023/08/25 00:10:53;;;;;;;0.00;0.00;;;;;;;-145.06;100.00;39336.06;10377809;28;20097;-66
2023/08/25 00:15:53;;;;;;;0.10;0.10;;;;;;;-145.06;100.00;39336.06;10394263;28;20257;-64
2023/08/25 00:20:54;;;;;;;0.10;0.10;;;;;;;-145.06;100.00;39315.91;10385644;28;20043;-65
2023/08/25 00:25:54;;;;;;;0.10;0.10;;;;;;;-145.06;100.00;39326.00;10377287;28;20479;-66
2023/08/25 00:30:54;;;;;;;0.00;0.00;;;;;;;-145.06;100.00;39323.97;10395615;28;20556;-66
2023/08/25 00:35:55;;;;;;;0.00;0.00;;;;;;;-145.06;100.00;39354.25;10389492;28;20124;-67
2023/08/25 00:40:55;;;;;;;0.00;0.00;;;;;;;-145.06;100.00;39384.50;10389108;28;20263;-68
2023/08/25 00:45:55;;;;;;;0.10;0.10;;;;;;;-145.06;100.00;39364.31;10382073;28;20117;-67
2023/08/25 00:50:57;;;;;;;0.10;0.10;;;;;;;-145.06;100.00;39380.47;10382169;28;20112;-68
2023/08/25 00:55:58;;;;;;;0.00;0.00;;;;;;;-145.06;100.00;39390.56;10390365;28;20478;-67
2023/08/25 01:01:01;;;;;;;0.10;0.10;;;;;;;-145.06;100.00;39390.56;10374873;28;20029;-67
2023/08/25 01:06:02;;;;;;;0.00;0.00;;;;;;;-145.06;100.00;39418.81;10390778;28;20022;-67
2023/08/25 01:11:02;;;;;;;0.10;0.10;;;;;;;-145.06;100.00;39412.75;10382757;28;20281;-67
2023/08/25 01:16:05;;;;;;;0.10;0.10;;;;;;;-145.06;100.00;39402.66;10386327;28;20489;-67
2023/08/25 01:21:06;;;;;;;0.10;0.10;;;;;;;-145.06;100.00;39390.56;10386376;28;20026;-68
2023/08/25 01:26:07;;;;;;;0.00;0.00;;;;;;;-145.06;100.00;39362.31;10389142;28;20021;-68
2023/08/25 01:31:07;;;;;;;0.00;0.00;;;;;;;-145.06;100.00;39378.44;10392991;28;20038;-68
2023/08/25 01:36:13;;;;;;;0.10;0.10;;;;;;;-145.06;100.00;39396.59;10392076;28;20422;-66
2023/08/25 01:41:16;;;;;;;0.00;0.00;;;;;;;-145.06;100.00;39374.41;10402115;28;20079;-67
2023/08/25 01:46:18;;;;;;;0.00;0.00;;;;;;;-145.06;100.00;39366.34;10389313;28;20021;-65
2023/08/25 01:51:19;;;;;;;0.00;0.00;;;;;;;-145.06;100.00;39410.72;10394495;28;20036;-67
2023/08/25 01:56:20;;;;;;;0.00;0.00;;;;;;;-145.06;100.00;39408.72;10389286;28;20024;-67
2023/08/25 02:01:20;;;;;;;0.10;0.10;;;;;;;-145.06;100.00;39420.81;10396200;28;20053;-68
2023/08/25 02:06:20;;;;;;;0.00;0.00;;;;;;;-145.06;100.00;39394.59;10390602;28;20021;-68
2023/08/25 02:11:21;;;;;;;0.10;0.10;;;;;;;-145.06;100.00;39398.63;10402067;28;20104;-68
2023/08/25 02:16:21;;;;;;;0.10;0.10;;;;;;;-145.06;100.00;39441.00;10388519;28;20017;-68
2023/08/25 02:21:21;;;;;;;0.00;0.00;;;;;;;-145.06;100.00;39430.91;10383011;28;20021;-68
2023/08/25 02:26:22;;;;;;;0.00;0.00;;;;;;;-145.06;100.00;39402.66;10382042;28;20273;-68
2023/08/25 02:31:22;;;;;;;0.10;0.10;;;;;;;-145.06;100.00;39424.84;10382264;28;20033;-68
2023/08/25 02:36:22;;;;;;;0.00;0.00;;;;;;;-145.06;100.00;39445.03;10382662;28;20378;-68
2023/08/25 02:41:22;;;;;;;0.10;0.10;;;;;;;-145.06;100.00;39418.81;10389528;28;20497;-68
2023/08/25 02:46:23;;;;;;;0.10;0.10;;;;;;;-145.06;100.00;39410.72;10379869;28;20025;-67
2023/08/25 02:51:23;;;;;;;0.10;0.10;;;;;;;-145.06;100.00;39453.09;10387823;28;20030;-68
2023/08/25 02:56:23;;;;;;;0.10;0.10;;;;;;;-145.06;100.00;39497.50;10385167;28;20037;-68
2023/08/25 03:01:24;;;;;;;0.00;0.00;;;;;;;-145.06;100.00;39479.34;10393587;28;20037;-68
2023/08/25 03:06:24;;;;;;;0.10;0.10;;;;;;;-145.06;100.00;39461.19;10382884;28;20018;-65
2023/08/25 03:11:24;;;;;;;0.00;0.00;;;;;;;-145.06;100.00;39465.22;10386236;28;20045;-66
2023/08/25 03:16:25;;;;;;;0.00;0.00;;;;;;;-145.06;100.00;39441.00;10394562;28;21082;-65
2023/08/25 03:21:25;;;;;;;0.00;0.00;;;;;;;-145.06;100.00;39451.09;10383732;28;20025;-66
2023/08/25 03:26:25;;;;;;;0.00;0.00;;;;;;;-145.06;100.00;39475.31;10384093;28;20053;-66
2023/08/25 03:31:25;;;;;;;0.00;0.00;;;;;;;-145.06;100.00;39473.28;10380519;28;20036;-67
2023/08/25 03:36:26;;;;;;;0.10;0.10;;;;;;;-145.06;100.00;39465.22;10386595;28;20029;-67
2023/08/25 03:41:26;;;;;;;0.00;0.00;;;;;;;-145.06;100.00;39477.31;10381116;28;20048;-67
2023/08/25 03:46:26;;;;;;;0.03;0.03;;;;;;;-145.06;100.00;39477.31;10381350;28;20429;-67
2023/08/25 03:51:27;;;;;;;0.10;0.10;;;;;;;-145.06;100.00;39487.41;10386462;28;20394;-67
2023/08/25 03:56:27;;;;;;;0.00;0.00;;;;;;;-145.06;100.00;39489.44;10389064;28;20029;-67
2023/08/25 04:01:30;;;;;;;0.00;0.00;;;;;;;-145.06;100.00;39491.44;10369825;28;21978;-67
2023/08/25 04:06:30;;;;;;;0.10;0.10;;;;;;;-145.06;100.00;39479.34;10352511;28;20029;-68
2023/08/25 04:11:30;;;;;;;0.00;0.00;;;;;;;-145.06;100.00;39511.63;10420752;22;20032;-62
2023/08/25 04:16:31;;;;;;;0.10;0.10;;;;;;;-145.06;100.00;39515.66;10461200;28;20024;-62
2023/08/25 04:21:31;;;;;;;0.10;0.10;;;;;;;-145.06;100.00;39511.63;10477205;28;20081;-61
2023/08/25 04:26:31;;;;;;;0.10;0.10;;;;;;;-145.06;100.00;39511.63;10466645;28;20025;-62
2023/08/25 04:31:32;;;;;;;0.10;0.10;;;;;;;-145.06;100.00;39525.75;10472142;28;20029;-62
2023/08/25 04:36:33;;;;;;;0.10;0.10;;;;;;;-145.06;100.00;39507.59;10460462;28;20024;-62
2023/08/25 04:41:33;;;;;;;0.00;0.00;;;;;;;-145.06;100.00;39491.44;10471830;28;20025;-62
2023/08/25 04:46:34;;;;;;;0.00;0.00;;;;;;;-145.06;100.00;39491.44;10462292;28;20465;-62
2023/08/25 04:51:34;;;;;;;0.10;0.10;;;;;;;-145.06;100.00;39414.78;10479876;28;20516;-61
2023/08/25 04:56:34;;;;;;;0.00;0.00;;;;;;;-145.06;100.00;39384.50;10462366;28;20435;-62
2023/08/25 05:01:34;;;;;;;0.00;0.00;;;;;;;-145.06;100.00;39420.81;10470647;28;20492;-62
2023/08/25 05:06:35;;;;;;;0.00;0.00;;;;;;;-145.06;100.00;39406.69;10453544;28;20025;-62
2023/08/25 05:11:35;;;;;;;0.00;0.00;;;;;;;-145.06;100.00;39386.53;10463654;28;20033;-62
2023/08/25 05:16:35;;;;;;;0.10;0.10;;;;;;;-145.06;100.00;39352.22;10466901;28;20035;-62
2023/08/25 05:21:36;;;;;;;0.10;0.10;;;;;;;-145.06;100.00;39382.50;10475626;28;20415;-63
2023/08/25 05:26:36;;;;;;;0.10;0.10;;;;;;;-145.06;100.00;39354.25;10485076;28;20043;-62
2023/08/25 05:31:36;;;;;;;0.10;0.10;;;;;;;-145.06;100.00;39249.31;10469776;28;20031;-62
2023/08/25 05:36:37;;;;;;;0.00;0.00;;;;;;;-145.06;100.00;39150.47;10479431;28;20020;-63
2023/08/25 05:41:38;;;;;;;0.10;0.10;;;;;;;-145.06;100.00;39087.91;10462179;28;20016;-63
2023/08/25 05:46:40;;;;;;;0.00;0.00;;;;;;;-145.06;100.00;39007.22;10470606;28;20026;-61
2023/08/25 05:51:40;;;;;;;0.00;0.00;;;;;;;-145.06;100.00;38930.53;10465694;28;20025;-62
2023/08/25 05:56:40;;;;;;;0.00;0.00;;;;;;;-145.06;100.00;38886.16;10460945;28;20013;-61
2023/08/25 06:01:41;;;;;;;0.10;0.10;;;;;;;-145.06;100.00;38458.47;10482662;28;20024;-61
2023/08/25 06:06:41;;;;;;;0.10;0.10;;;;;;;-145.06;100.00;38242.63;10469502;28;20505;-62
2023/08/25 06:11:42;;;;;;;0.00;0.00;;;;;;;-145.06;100.00;38127.66;10461125;28;20393;-63
2023/08/25 06:16:42;;;;;;;0.10;0.10;;;;;;;-145.06;100.00;38240.63;10477530;28;20469;-63
2023/08/25 06:21:42;;;;;;;0.00;0.00;;;;;;;-145.06;100.00;38541.19;10477384;28;20104;-63
2023/08/25 06:26:43;;;;;;;0.00;0.00;;;;;;;-145.06;100.00;38627.94;10475628;28;20016;-63
2023/08/25 06:31:43;;;;;;;0.10;0.10;;;;;;;-145.06;100.00;38684.41;10477397;28;20473;-62
2023/08/25 06:36:43;;;;;;;0.00;0.00;;;;;;;-145.06;100.00;38688.44;10477729;28;20020;-62
2023/08/25 06:41:43;;;;;;;0.08;0.08;;;;;;;-145.06;100.00;38751.00;10453681;28;20035;-63
2023/08/25 06:46:44;;;;;;;0.00;0.00;;;;;;;-145.06;100.00;38841.78;10474869;28;20013;-62
2023/08/25 06:51:44;;;;;;;0.00;0.00;;;;;;;-145.06;100.00;38874.06;10480430;28;20030;-63
2023/08/25 06:56:45;;;;;;;0.00;0.00;;;;;;;-145.06;100.00;38781.25;10475097;28;20158;-62
2023/08/25 07:01:45;;;;;;;0.00;0.00;;;;;;;-145.06;100.00;38480.66;10466020;28;20032;-63
2023/08/25 07:06:45;;;;;;;0.00;0.00;;;;;;;-145.06;98.31;38093.38;10453101;28;20021;-63
2023/08/25 07:11:45;;;;;;;0.10;0.10;;;;;;;-145.06;96.44;38000.59;10475015;28;20102;-63
2023/08/25 07:16:46;;;;;;;0.10;0.10;;;;;;;-145.06;83.45;37443.94;10443332;28;20040;-63
2023/08/25 07:21:46;;;;;;;0.00;0.00;;;;;;;-145.06;77.45;37000.28;10440858;28;20037;-63
2023/08/25 07:26:46;;;;;;;0.10;0.10;;;;;;;-145.06;70.67;36492.16;10469725;28;20019;-63
2023/08/25 07:31:47;;;;;;;0.10;0.10;;;;;;;-145.06;66.75;36155.44;10466169;28;20029;-63
2023/08/25 07:36:48;;;;;;;0.10;0.10;;;;;;;-145.06;68.04;36566.75;10462867;28;20044;-63
2023/08/25 07:41:48;;;;;;;0.10;0.10;;;;;;;-145.06;76.73;37387.47;10468191;28;20028;-63
2023/08/25 07:46:48;;;;;;;0.00;0.00;;;;;;;-145.06;85.23;37837.22;10450877;28;20037;-63
2023/08/25 07:51:49;;;;;;;0.10;0.10;;;;;;;-145.06;90.81;38067.16;10456361;28;20108;-63
2023/08/25 07:56:49;;;;;;;0.00;0.00;;;;;;;-145.06;93.86;38131.69;10446893;28;20036;-62
2023/08/25 08:01:53;;;;;;;0.10;0.10;;;;;;;-145.06;97.86;38163.97;10441547;28;20310;-63
2023/08/25 08:06:55;;;;;;;0.00;0.00;;;;;;;-145.06;98.67;38190.19;10444875;28;20025;-62
2023/08/25 08:11:55;;;;;;;0.10;0.10;;;;;;;-145.06;99.24;38256.75;10445064;28;20111;-63
2023/08/25 08:16:56;;;;;;;0.00;0.00;;;;;;;-145.06;100.00;38355.59;10453762;28;20021;-62
2023/08/25 08:21:57;;;;;;;0.00;0.00;;;;;;;-145.06;100.00;38385.84;10474160;28;20060;-63
2023/08/25 08:26:58;;;;;;;0.00;0.00;;;;;;;-145.06;100.00;38402.00;10449324;28;20053;-63
2023/08/25 08:31:58;;;;;;;0.00;0.00;;;;;;;-145.06;100.00;38470.59;10452463;28;20036;-62
2023/08/25 08:36:59;;;;;;;0.00;0.00;;;;;;;-145.06;100.00;38484.69;10446075;28;20036;-62
2023/08/25 08:42:03;;;;;;;0.00;0.00;;;;;;;-145.06;100.00;38494.78;10485683;28;20263;-63
2023/08/25 08:47:05;;;;;;;0.00;0.00;;;;;;;-145.06;100.00;38516.97;10457678;28;20057;-63
2023/08/25 08:52:06;;;;;;;0.10;0.10;;;;;;;-145.06;100.00;38519.00;10479339;28;20536;-61
2023/08/25 08:57:08;;;;;;;0.00;0.00;;;;;;;-145.06;100.00;38523.03;10471508;28;20493;-63
2023/08/25 09:02:10;;;;;;;0.00;0.00;;;;;;;-145.06;100.00;38466.53;10470854;28;20039;-62
2023/08/25 09:07:11;;;;;;;0.00;0.00;;;;;;;-145.06;100.00;38470.59;10474738;28;20021;-62
2023/08/25 09:12:13;;;;;;;0.00;0.00;;;;;;;-145.06;100.00;38494.78;10473836;28;20063;-62
2023/08/25 09:17:14;;;;;;;0.00;0.00;;;;;;;-145.06;100.00;38508.91;10486215;28;20016;-63
2023/08/25 09:22:18;;;;;;;0.00;0.00;;;;;;;-145.06;100.00;38412.09;10472841;28;20029;-62
2023/08/25 09:27:25;;;;;;;0.00;0.00;;;;;;;-145.06;100.00;38329.38;10460890;28;20020;-63
2023/08/25 09:32:28;;;;;;;0.00;0.00;;;;;;;-145.06;100.00;38004.63;10481863;28;20055;-62
2023/08/25 09:37:41;;;;;;;0.00;0.00;;;;;;;-145.06;95.08;37885.63;10453420;28;20040;-62
2023/08/25 09:42:42;;;;;;;0.00;0.00;;;;;;;-145.06;93.71;37817.03;10469107;28;20450;-62
2023/08/25 09:47:42;;;;;;;0.10;0.10;;;;;;;-145.06;93.55;37764.59;10457982;28;20021;-62
2023/08/25 09:52:44;;;;;;;0.00;0.00;;;;;;;-145.06;89.16;37768.63;10455503;28;20025;-62
2023/08/25 09:57:48;;;;;;;0.00;0.00;;;;;;;-145.06;90.58;37798.91;10465553;28;20017;-62
2023/08/25 10:02:50;;;;;;;0.00;0.00;;;;;;;-145.06;89.33;37869.47;10476185;28;20033;-62
2023/08/25 10:07:51;;;;;;;0.00;0.00;;;;;;;-145.06;90.89;37917.88;10461924;28;20029;-62
2023/08/25 10:12:55;;;;;;;0.00;0.00;;;;;;;-145.06;92.49;37962.25;10473789;28;20036;-62
2023/08/25 10:18:03;;;;;;;0.10;0.10;;;;;;;-145.06;94.58;38002.59;10483030;28;20042;-61
2023/08/25 10:23:04;;;;;;;0.00;0.00;;;;;;;-145.06;95.20;38014.72;10464920;28;20055;-62
2023/08/25 10:28:08;;;;;;;0.00;0.00;;;;;;;-145.06;96.28;38111.53;10479157;28;20070;-62
2023/08/25 10:33:10;;;;;;;0.00;0.00;;;;;;;-145.06;96.64;38133.72;10487637;22;20044;-73
2023/08/25 10:38:19;;;;;;;0.10;0.10;;;;;;;-145.06;98.51;38202.28;10474059;28;20032;-70
2023/08/25 10:43:32;;;;;;;0.10;0.10;;;;;;;-145.06;97.21;38254.75;10431782;28;20060;-69
2023/08/25 10:48:33;;;;;;;0.00;0.00;;;;;;;-145.06;99.46;38272.91;10410190;28;20032;-72
2023/08/25 10:53:37;;;;;;;0.05;0.05;;;;;;;-145.06;98.72;38365.69;10423701;28;20508;-72
2023/08/25 10:58:39;;;;;;;0.10;0.10;;;;;;;-145.06;100.00;38377.78;10442042;28;20017;-69
2023/08/25 11:04:05;;;;;;;0.00;0.00;;;;;;;-145.06;100.00;38381.81;10449911;28;20021;-70
2023/08/25 11:09:09;;;;;;;0.10;0.10;;;;;;;-145.06;100.00;38383.84;10428346;28;20022;-68
2023/08/25 11:14:09;;;;;;;0.10;0.10;;;;;;;-145.06;100.00;38359.63;10425106;28;20021;-69
2023/08/25 11:19:10;;;;;;;0.00;0.00;;;;;;;-145.06;99.48;38321.31;10426347;28;20578;-70
2023/08/25 11:24:21;;;;;;;0.00;0.00;;;;;;;-145.06;99.20;38406.03;10443206;28;20100;-69
2023/08/25 11:29:22;;;;;;;0.00;0.00;;;;;;;-145.06;99.41;38468.56;10443963;28;20017;-68
2023/08/25 11:34:22;;;;;;;0.00;0.00;;;;;;;-145.06;100.00;38563.38;10448738;28;20135;-69
2023/08/25 11:39:22;;;;;;;0.10;0.10;;;;;;;-145.06;100.00;38577.50;10428169;28;20051;-68
2023/08/25 11:44:24;;;;;;;0.00;0.00;;;;;;;-145.06;100.00;38636.00;10448733;28;20259;-68
2023/08/25 11:49:26;;;;;;;0.10;0.10;;;;;;;-145.06;100.00;38684.41;10428668;28;20496;-72
2023/08/25 11:54:26;;;;;;;0.00;0.00;;;;;;;-145.06;100.00;38765.13;10443133;28;20493;-69
2023/08/25 11:59:29;;;;;;;0.00;0.00;;;;;;;-145.06;100.00;38797.38;10446998;28;20025;-70
2023/08/25 12:04:29;;;;;;;0.00;0.00;;;;;;;-145.06;100.00;38801.44;10434451;28;20029;-69
2023/08/25 12:09:29;;;;;;;0.00;0.00;;;;;;;-145.06;100.00;38785.28;10419182;28;20013;-69
2023/08/25 12:14:30;;;;;;;0.00;0.00;;;;;;;-145.06;100.00;38859.94;10396316;28;20650;-70
2023/08/25 12:19:31;;;;;;;0.00;0.00;;;;;;;-145.06;100.00;38914.41;10439801;28;20020;-70
2023/08/25 12:24:31;;;;;;;0.00;0.00;;;;;;;-145.06;100.00;38938.63;10425630;28;20029;-70
2023/08/25 12:29:31;;;;;;;0.00;0.00;;;;;;;-145.06;100.00;38974.94;10441451;28;20044;-69
2023/08/25 12:34:32;;;;;;;0.00;0.00;;;;;;;-145.06;100.00;38991.06;10430654;28;20056;-69
2023/08/25 12:39:32;;;;;;;0.00;0.00;;;;;;;-145.06;100.00;39013.25;10435465;28;20367;-69
2023/08/25 12:44:32;;;;;;;0.00;0.00;;;;;;;-145.06;100.00;39029.41;10432864;28;20385;-69
2023/08/25 12:49:33;;;;;;;0.00;0.00;;;;;;;-145.06;100.00;39039.50;10431568;28;20017;-69
2023/08/25 12:54:33;;;;;;;0.00;0.00;;;;;;;-145.06;100.00;39049.56;10429067;28;20143;-69
2023/08/25 12:59:33;;;;;;;0.00;0.00;;;;;;;-145.06;100.00;39043.53;10423454;28;20017;-69
2023/08/25 13:04:34;;;;;;;0.00;0.00;;;;;;;-145.06;100.00;39029.41;10429417;28;20056;-69
2023/08/25 13:09:34;;;;;;;0.10;0.10;;;;;;;-145.06;100.00;39017.28;10420588;28;20017;-68
2023/08/25 13:14:34;;;;;;;0.00;0.00;;;;;;;-145.06;100.00;38960.81;10438483;28;20112;-68
2023/08/25 13:19:34;;;;;;;0.00;0.00;;;;;;;-145.06;100.00;38849.84;10424389;28;20027;-68
2023/08/25 13:24:35;;;;;;;0.00;0.00;;;;;;;-145.06;100.00;38870.03;10436273;28;20025;-69
2023/08/25 13:29:35;;;;;;;0.00;0.00;;;;;;;-145.06;100.00;38811.50;10436499;28;20013;-68
2023/08/25 13:34:35;;;;;;;0.00;0.00;;;;;;;-145.06;100.00;38817.56;10432937;28;20451;-68
2023/08/25 13:39:38;;;;;;;0.00;0.00;;;;;;;-145.06;100.00;38799.41;10436242;28;20083;-68
2023/08/25 13:44:39;;;;;;;0.00;0.00;;;;;;;-145.06;100.00;38738.88;10438060;28;20268;-68
2023/08/25 13:49:39;;;;;;;0.00;0.00;;;;;;;-145.06;100.00;38738.88;10432097;28;20025;-68
2023/08/25 13:54:39;;;;;;;0.00;0.00;;;;;;;-145.06;100.00;38726.78;10431312;28;20022;-68
2023/08/25 13:59:40;;;;;;;0.05;0.05;;;;;;;-145.06;100.00;38706.59;10415597;28;20036;-68
2023/08/25 14:04:41;;;;;;;0.00;0.00;;;;;;;-145.06;100.00;38698.53;10443016;28;20477;-68
2023/08/25 14:09:42;;;;;;;0.00;0.00;;;;;;;-145.06;100.00;38676.34;10427736;28;20020;-69
2023/08/25 14:14:42;;;;;;;0.00;0.00;;;;;;;-145.06;100.00;38603.72;10429175;28;20025;-69
2023/08/25 14:19:42;;;;;;;0.00;0.00;;;;;;;-145.06;100.00;38573.47;10416807;28;20041;-69
2023/08/25 14:24:42;;;;;;;0.00;0.00;;;;;;;-145.06;100.00;38591.63;10452905;28;20422;-70
2023/08/25 14:29:44;;;;;;;0.00;0.00;;;;;;;-145.06;100.00;38589.59;10414499;28;20028;-69
2023/08/25 14:34:44;;;;;;;0.00;0.00;;;;;;;-145.06;100.00;38527.06;10417323;28;20078;-69
2023/08/25 14:39:44;;;;;;;0.00;0.00;;;;;;;-145.06;100.00;38553.28;10429178;28;20067;-69
2023/08/25 14:44:45;;;;;;;0.00;0.00;;;;;;;-145.06;100.00;38623.91;10449780;28;20370;-69
2023/08/25 14:49:45;;;;;;;0.10;0.10;;;;;;;-145.06;100.00;38571.44;10455985;28;20655;-69
2023/08/25 14:54:45;;;;;;;0.00;0.00;;;;;;;-145.06;100.00;38571.44;10413414;28;20025;-69
2023/08/25 14:59:46;;;;;;;0.00;0.00;;;;;;;-145.06;100.00;38633.97;10440661;28;20470;-69
2023/08/25 15:04:46;;;;;;;0.00;0.00;;;;;;;-145.06;100.00;38712.66;10454971;28;20295;-70
2023/08/25 15:09:47;;;;;;;0.00;0.00;;;;;;;-145.06;100.00;38668.28;10417262;28;20045;-69
2023/08/25 15:14:49;;;;;;;0.00;0.00;;;;;;;-145.06;100.00;38714.69;10414441;28;20021;-69
2023/08/25 15:19:50;;;;;;;0.00;0.00;;;;;;;-145.06;100.00;38795.38;10413038;28;20026;-70
2023/08/25 15:24:51;;;;;;;0.00;0.00;;;;;;;-145.06;100.00;38815.53;10412065;28;20412;-69
2023/08/25 15:29:51;;;;;;;0.00;0.00;;;;;;;-145.06;100.00;38785.28;10414327;28;20041;-69
2023/08/25 15:34:51;;;;;;;0.10;0.10;;;;;;;-145.06;100.00;38704.59;10426488;28;20025;-69
2023/08/25 15:39:52;;;;;;;0.00;0.00;;;;;;;-145.06;100.00;38644.06;10438660;28;20032;-69
2023/08/25 15:44:52;;;;;;;0.00;0.00;;;;;;;-145.06;100.00;38617.84;10424760;28;20055;-69
2023/08/25 15:49:53;;;;;;;0.00;0.00;;;;;;;-145.06;100.00;38587.59;10444306;28;20019;-69
2023/08/25 15:54:53;;;;;;;0.00;0.00;;;;;;;-145.06;100.00;38688.44;10435249;28;20083;-69
2023/08/25 15:59:53;;;;;;;0.00;0.00;;;;;;;-145.06;100.00;38690.47;10445831;28;20028;-74
2023/08/25 16:04:53;;;;;;;0.10;0.10;;;;;;;-145.06;100.00;38666.25;10421356;28;20476;-71
2023/08/25 16:09:54;;;;;;;0.00;0.00;;;;;;;-145.06;100.00;38666.25;10449590;28;20424;-69
2023/08/25 16:14:54;;;;;;;0.00;0.00;;;;;;;-145.06;100.00;38696.53;10412365;28;20097;-71
2023/08/25 16:19:55;;;;;;;0.00;0.00;;;;;;;-145.06;100.00;38728.78;10437245;28;20017;-74
2023/08/25 16:24:55;;;;;;;0.00;0.00;;;;;;;-145.06;100.00;38746.97;10414904;28;20033;-70
2023/08/25 16:29:56;;;;;;;0.00;0.00;;;;;;;-145.06;100.00;38783.28;10425921;28;20052;-72
2023/08/25 16:34:56;;;;;;;0.10;0.10;;;;;;;-145.06;100.00;38787.31;10479032;22;20046;-64
2023/08/25 16:39:56;;;;;;;0.00;0.00;;;;;;;-145.06;100.00;38823.63;10374879;28;20073;-67
2023/08/25 16:44:56;;;;;;;0.00;0.00;;;;;;;-145.06;100.00;38805.47;10351846;28;20053;-69
2023/08/25 16:49:57;;;;;;;0.00;0.00;;;;;;;-145.06;100.00;38813.53;10356289;28;20501;-67
2023/08/25 16:54:57;;;;;;;0.00;0.00;;;;;;;-145.06;100.00;38900.28;10359382;28;20570;-66
2023/08/25 16:59:57;;;;;;;0.00;0.00;;;;;;;-145.06;100.00;38886.16;10363812;28;20502;-68
2023/08/25 17:04:58;;;;;;;0.00;0.00;;;;;;;-145.06;100.00;38894.22;10355926;28;20026;-66
2023/08/25 17:09:59;;;;;;;0.00;0.00;;;;;;;-145.06;100.00;38908.34;10334483;28;20034;-64
2023/08/25 17:14:59;;;;;;;0.00;0.00;;;;;;;-145.06;100.00;38956.78;10336687;28;20483;-68
2023/08/25 17:19:59;;;;;;;0.00;0.00;;;;;;;-145.06;100.00;38968.88;10341897;28;20033;-66
2023/08/25 17:25:00;;;;;;;0.00;0.00;;;;;;;-145.06;100.00;38974.94;10345200;28;20032;-68
2023/08/25 17:30:00;;;;;;;0.00;0.00;;;;;;;-145.06;100.00;39001.16;10356408;28;20371;-68
2023/08/25 17:35:02;;;;;;;0.00;0.00;;;;;;;-145.06;100.00;38966.84;10346280;28;20029;-66
2023/08/25 17:40:03;;;;;;;0.00;0.00;;;;;;;-145.06;100.00;39005.19;10326292;28;20049;-67
2023/08/25 17:45:04;;;;;;;0.00;0.00;;;;;;;-145.06;100.00;39007.22;10350164;28;20050;-66
2023/08/25 17:50:05;;;;;;;0.10;0.10;;;;;;;-145.06;100.00;39023.34;10339474;28;20060;-67
2023/08/25 17:55:05;;;;;;;0.00;0.00;;;;;;;-145.06;100.00;39041.50;10343611;28;20545;-66
2023/08/25 18:00:07;;;;;;;0.00;0.00;;;;;;;-145.06;100.00;39031.41;10354356;28;20052;-67
2023/08/25 18:05:08;;;;;;;0.00;0.00;;;;;;;-145.06;100.00;39081.84;10318628;28;20030;-67
2023/08/25 18:10:09;;;;;;;0.00;0.00;;;;;;;-145.06;100.00;39061.69;10361498;28;20030;-67
2023/08/25 18:15:09;;;;;;;0.00;0.00;;;;;;;-145.06;100.00;39122.22;10354718;28;20030;-66
2023/08/25 18:20:10;;;;;;;0.00;0.00;;;;;;;-145.06;100.00;39071.78;10345982;28;20037;-66
2023/08/25 18:25:11;;;;;;;0.00;0.00;;;;;;;-145.06;100.00;39120.19;10355074;28;20018;-66
2023/08/25 18:30:11;;;;;;;0.00;0.00;;;;;;;-145.06;100.00;39116.16;10361673;28;20026;-66
2023/08/25 18:35:11;;;;;;;0.00;0.00;;;;;;;-145.06;100.00;39142.38;10334135;28;20034;-68
2023/08/25 18:40:12;;;;;;;0.10;0.10;;;;;;;-145.06;100.00;39114.13;10345912;28;20034;-68
2023/08/25 18:45:12;;;;;;;0.10;0.10;;;;;;;-145.06;100.00;39116.16;10346021;28;20060;-66
2023/08/25 18:50:13;;;;;;;0.00;0.00;;;;;;;-145.06;100.00;39102.03;10335474;28;20513;-67
2023/08/25 18:55:13;;;;;;;0.03;0.03;;;;;;;-145.06;100.00;39152.47;10337457;28;20030;-67
2023/08/25 19:00:14;;;;;;;0.10;0.10;;;;;;;-145.06;100.00;39114.13;10341431;28;20023;-66
2023/08/25 19:05:17;;;;;;;0.10;0.10;;;;;;;-145.06;100.00;39100.00;10336560;28;20505;-67
2023/08/25 19:10:19;;;;;;;0.00;0.00;;;;;;;-145.06;100.00;39144.41;10339852;28;20037;-68
2023/08/25 19:15:19;;;;;;;0.10;0.10;;;;;;;-145.06;100.00;39154.50;10340962;28;20061;-68
2023/08/25 19:20:21;;;;;;;0.00;0.00;;;;;;;-145.06;100.00;39120.19;10340383;28;20065;-68
2023/08/25 19:25:21;;;;;;;0.00;0.00;;;;;;;-145.06;100.00;39128.25;10343202;28;20018;-66
2023/08/25 19:30:22;;;;;;;0.10;0.10;;;;;;;-145.06;100.00;39116.16;10348361;28;20690;-67
2023/08/25 19:35:22;;;;;;;0.10;0.10;;;;;;;-145.06;100.00;39136.34;10344051;28;20494;-67
2023/08/25 19:40:22;;;;;;;0.00;0.00;;;;;;;-145.06;100.00;39152.47;10339989;28;20392;-66
2023/08/25 19:45:22;;;;;;;0.00;0.00;;;;;;;-145.06;100.00;39128.25;10331609;28;20395;-67
2023/08/25 19:50:23;;;;;;;0.00;0.00;;;;;;;-145.06;100.00;39156.50;10333673;28;20026;-67
2023/08/25 19:55:23;;;;;;;0.10;0.10;;;;;;;-145.06;100.00;39150.47;10341355;28;20030;-67
2023/08/25 20:00:24;;;;;;;0.00;0.00;;;;;;;-145.06;100.00;39166.59;10347068;28;20033;-67
2023/08/25 20:05:24;;;;;;;0.00;0.00;;;;;;;-145.06;100.00;39166.59;10347011;28;20038;-68
2023/08/25 20:10:25;;;;;;;0.00;0.00;;;;;;;-145.06;100.00;39184.75;10350167;28;20125;-67
2023/08/25 20:15:26;;;;;;;0.00;0.00;;;;;;;-145.06;100.00;39182.75;10352520;28;20034;-66
2023/08/25 20:20:27;;;;;;;0.00;0.00;;;;;;;-145.06;100.00;39180.72;10348119;28;20021;-68
2023/08/25 20:25:27;;;;;;;0.10;0.10;;;;;;;-145.06;100.00;39184.75;10346780;28;20022;-68
2023/08/25 20:30:28;;;;;;;0.00;0.00;;;;;;;-145.06;100.00;39160.53;10341165;28;20030;-68
2023/08/25 20:35:28;;;;;;;0.00;0.00;;;;;;;-145.06;100.00;39202.91;10344081;28;20030;-68
2023/08/25 20:40:28;;;;;;;0.00;0.00;;;;;;;-145.06;100.00;39215.03;10339520;28;20044;-67
2023/08/25 20:45:29;;;;;;;0.00;0.00;;;;;;;-145.06;100.00;39225.09;10326097;28;20287;-66
2023/08/25 20:50:29;;;;;;;0.10;0.10;;;;;;;-145.06;100.00;39253.34;10361250;28;20034;-64
2023/08/25 20:55:30;;;;;;;0.00;0.00;;;;;;;-145.06;100.00;39263.44;10350479;28;20018;-65
2023/08/25 21:00:31;;;;;;;0.10;0.10;;;;;;;-145.06;100.00;39265.47;10340466;28;20022;-65
2023/08/25 21:05:32;;;;;;;0.00;0.00;;;;;;;-145.06;100.00;39267.47;10339389;28;20026;-67
2023/08/25 21:10:32;;;;;;;0.10;0.10;;;;;;;-145.06;100.00;39239.22;10342073;28;20486;-67
2023/08/25 21:15:33;;;;;;;0.00;0.00;;;;;;;-145.06;100.00;39299.75;10340609;28;20085;-68
2023/08/25 21:20:33;;;;;;;0.00;0.00;;;;;;;-145.06;100.00;39289.66;10344440;28;20039;-68
2023/08/25 21:25:33;;;;;;;0.00;0.00;;;;;;;-145.06;100.00;39293.72;10341120;28;20030;-68
2023/08/25 21:30:34;;;;;;;0.03;0.03;;;;;;;-145.06;100.00;39251.34;10327597;28;20022;-67
2023/08/25 21:35:34;;;;;;;0.00;0.00;;;;;;;-145.06;100.00;39289.66;10337445;28;20506;-68
2023/08/25 21:40:36;;;;;;;0.00;0.00;;;;;;;-145.06;100.00;39301.78;10358209;28;20084;-68
2023/08/25 21:45:36;;;;;;;0.00;0.00;;;;;;;-145.06;100.00;39293.72;10363592;28;20116;-69
2023/08/25 21:50:43;;;;;;;0.10;0.10;;;;;;;-145.06;100.00;39293.72;10349854;28;20112;-68
2023/08/25 21:55:44;;;;;;;0.10;0.10;;;;;;;-145.06;100.00;39319.94;10352870;28;20053;-68
2023/08/25 22:00:46;;;;;;;0.03;0.03;;;;;;;-145.06;100.00;39297.75;10356744;28;20030;-68
2023/08/25 22:05:46;;;;;;;0.00;0.00;;;;;;;-145.06;100.00;39313.88;10360617;28;20073;-69
2023/08/25 22:10:47;;;;;;;0.00;0.00;;;;;;;-145.06;100.00;39328.00;10334392;28;20056;-67
2023/08/25 22:15:47;;;;;;;0.00;0.00;;;;;;;-145.06;100.00;39338.09;10348433;28;20014;-68
2023/08/25 22:20:57;;;;;;;0.00;0.00;;;;;;;-145.06;100.00;39350.19;10359200;28;20021;-68
2023/08/25 22:25:57;;;;;;;0.10;0.10;;;;;;;-145.06;100.00;39378.44;10351400;28;20099;-68
2023/08/25 22:30:58;;;;;;;0.00;0.00;;;;;;;-145.06;100.00;39368.38;10344531;28;20034;-69